sensor_id;sensor_type;location;lat;lon;timestamp;P1;durP1;ratioP1;P2;durP2;ratioP2
4452;SDS011;2239;48.152;11.584;2024-01-15T01:57:02;6.53;;;2.72;;
4452;SDS011;2239;48.152;11.584;2024-01-15T01:59:29;8.95;;;3.42;;
4452;SDS011;2239;48.152;11.584;2024-01-15T02:01:57;8.90;;;3.05;;
4452;SDS011;2239;48.152;11.584;2024-01-15T02:04:23;6.43;;;2.40;;
4452;SDS011;2239;48.152;11.584;2024-01-15T02:06:50;11.50;;;3.38;;
4452;SDS011;2239;48.152;11.584;2024-01-15T02:09:16;11.00;;;3.17;;
4452;SDS011;2239;48.152;11.584;2024-01-15T02:11:48;5.47;;;2.55;;
4452;SDS011;2239;48.152;11.584;2024-01-15T02:14:14;8.27;;;3.22;;
4452;SDS011;2239;48.152;11.584;2024-01-15T02:16:40;11.88;;;3.28;;
4452;SDS011;2239;48.152;11.584;2024-01-15T02:19:06;5.90;;;2.37;;
4452;SDS011;2239;48.152;11.584;2024-01-15T02:21:32;15.00;;;3.30;;
4452;SDS011;2239;48.152;11.584;2024-01-15T02:23:57;16.73;;;4.33;;
4452;SDS011;2239;48.152;11.584;2024-01-15T02:26:23;7.15;;;2.70;;
4452;SDS011;2239;48.152;11.584;2024-01-15T02:28:49;4.80;;;2.50;;
4452;SDS011;2239;48.152;11.584;2024-01-15T02:31:16;9.15;;;2.97;;
4452;SDS011;2239;48.152;11.584;2024-01-15T02:33:42;7.77;;;2.80;;
4452;SDS011;2239;48.152;11.584;2024-01-15T02:36:09;8.80;;;2.55;;
4452;SDS011;2239;48.152;11.584;2024-01-15T02:38:34;12.25;;;3.25;;
4452;SDS011;2239;48.152;11.584;2024-01-15T02:41:00;7.20;;;3.07;;
4452;SDS011;2239;48.152;11.584;2024-01-15T02:43:25;7.40;;;3.57;;
4452;SDS011;2239;48.152;11.584;2024-01-15T02:45:51;11.13;;;2.90;;
4452;SDS011;2239;48.152;11.584;2024-01-15T02:48:16;6.07;;;2.93;;
4452;SDS011;2239;48.152;11.584;2024-01-15T02:50:42;16.07;;;3.50;;
4452;SDS011;2239;48.152;11.584;2024-01-15T02:53:08;5.60;;;2.70;;
4452;SDS011;2239;48.152;11.584;2024-01-15T02:55:33;6.07;;;2.40;;
4452;SDS011;2239;48.152;11.584;2024-01-15T02:57:59;14.10;;;3.10;;
4452;SDS011;2239;48.152;11.584;2024-01-15T03:00:24;11.67;;;3.53;;
4452;SDS011;2239;48.152;11.584;2024-01-15T03:02:50;8.50;;;3.50;;
4452;SDS011;2239;48.152;11.584;2024-01-15T03:05:16;12.85;;;4.32;;
4452;SDS011;2239;48.152;11.584;2024-01-15T03:07:42;6.27;;;2.43;;
4452;SDS011;2239;48.152;11.584;2024-01-15T03:10:07;19.08;;;3.50;;
4452;SDS011;2239;48.152;11.584;2024-01-15T03:12:33;14.65;;;2.92;;
4452;SDS011;2239;48.152;11.584;2024-01-15T03:14:59;9.93;;;3.30;;
4452;SDS011;2239;48.152;11.584;2024-01-15T03:17:25;7.73;;;3.13;;
4452;SDS011;2239;48.152;11.584;2024-01-15T03:19:50;6.30;;;2.90;;
4452;SDS011;2239;48.152;11.584;2024-01-15T03:22:16;8.43;;;3.33;;
4452;SDS011;2239;48.152;11.584;2024-01-15T03:24:42;8.35;;;2.38;;
4452;SDS011;2239;48.152;11.584;2024-01-15T03:27:08;5.03;;;2.60;;
4452;SDS011;2239;48.152;11.584;2024-01-15T03:29:34;8.27;;;2.90;;
4452;SDS011;2239;48.152;11.584;2024-01-15T03:38:43;12.13;;;3.67;;
4452;SDS011;2239;48.152;11.584;2024-01-15T03:41:09;8.80;;;2.67;;
4452;SDS011;2239;48.152;11.584;2024-01-15T03:43:34;9.00;;;2.87;;
4452;SDS011;2239;48.152;11.584;2024-01-15T03:46:00;8.37;;;2.60;;
4452;SDS011;2239;48.152;11.584;2024-01-15T03:48:27;9.40;;;2.50;;
4452;SDS011;2239;48.152;11.584;2024-01-15T03:50:52;7.27;;;2.40;;
4452;SDS011;2239;48.152;11.584;2024-01-15T03:53:18;4.03;;;2.23;;
4452;SDS011;2239;48.152;11.584;2024-01-15T03:55:44;7.93;;;3.20;;
4452;SDS011;2239;48.152;11.584;2024-01-15T03:58:09;7.87;;;2.77;;
4452;SDS011;2239;48.152;11.584;2024-01-15T04:00:35;8.20;;;3.17;;
4452;SDS011;2239;48.152;11.584;2024-01-15T04:03:00;9.63;;;3.20;;
4452;SDS011;2239;48.152;11.584;2024-01-15T04:05:26;8.33;;;2.90;;
4452;SDS011;2239;48.152;11.584;2024-01-15T04:07:52;6.30;;;2.90;;
4452;SDS011;2239;48.152;11.584;2024-01-15T04:10:17;13.67;;;2.57;;
4452;SDS011;2239;48.152;11.584;2024-01-15T04:12:43;3.30;;;2.33;;
4452;SDS011;2239;48.152;11.584;2024-01-15T04:15:11;9.38;;;2.78;;
4452;SDS011;2239;48.152;11.584;2024-01-15T04:17:37;4.75;;;1.98;;
4452;SDS011;2239;48.152;11.584;2024-01-15T04:20:03;6.20;;;2.60;;
4452;SDS011;2239;48.152;11.584;2024-01-15T04:22:29;7.13;;;2.58;;
4452;SDS011;2239;48.152;11.584;2024-01-15T04:24:54;6.23;;;2.03;;
4452;SDS011;2239;48.152;11.584;2024-01-15T04:27:20;6.17;;;2.50;;
4452;SDS011;2239;48.152;11.584;2024-01-15T04:29:45;8.07;;;2.97;;
4452;SDS011;2239;48.152;11.584;2024-01-15T04:32:11;4.93;;;2.40;;
4452;SDS011;2239;48.152;11.584;2024-01-15T04:34:36;6.43;;;2.10;;
4452;SDS011;2239;48.152;11.584;2024-01-15T04:37:02;11.90;;;3.00;;
4452;SDS011;2239;48.152;11.584;2024-01-15T04:39:27;12.03;;;3.07;;
4452;SDS011;2239;48.152;11.584;2024-01-15T04:41:53;8.80;;;2.13;;
4452;SDS011;2239;48.152;11.584;2024-01-15T04:44:19;10.50;;;2.80;;
4452;SDS011;2239;48.152;11.584;2024-01-15T04:46:45;5.17;;;2.40;;
4452;SDS011;2239;48.152;11.584;2024-01-15T04:49:11;3.83;;;2.07;;
4452;SDS011;2239;48.152;11.584;2024-01-15T04:51:36;6.32;;;2.15;;
4452;SDS011;2239;48.152;11.584;2024-01-15T04:54:02;5.00;;;2.17;;
4452;SDS011;2239;48.152;11.584;2024-01-15T04:56:27;6.10;;;2.50;;
4452;SDS011;2239;48.152;11.584;2024-01-15T04:58:53;8.63;;;2.87;;
4452;SDS011;2239;48.152;11.584;2024-01-15T05:01:18;5.17;;;2.33;;
4452;SDS011;2239;48.152;11.584;2024-01-15T05:03:44;6.03;;;2.30;;
4452;SDS011;2239;48.152;11.584;2024-01-15T05:06:09;7.37;;;2.93;;
4452;SDS011;2239;48.152;11.584;2024-01-15T05:08:35;5.50;;;2.23;;
4452;SDS011;2239;48.152;11.584;2024-01-15T05:11:01;7.60;;;2.07;;
4452;SDS011;2239;48.152;11.584;2024-01-15T05:13:26;8.73;;;2.73;;
4452;SDS011;2239;48.152;11.584;2024-01-15T05:15:52;9.63;;;2.90;;
4452;SDS011;2239;48.152;11.584;2024-01-15T05:18:17;5.57;;;2.03;;
4452;SDS011;2239;48.152;11.584;2024-01-15T05:20:43;8.20;;;2.33;;
4452;SDS011;2239;48.152;11.584;2024-01-15T05:23:08;8.80;;;2.30;;
4452;SDS011;2239;48.152;11.584;2024-01-15T05:25:34;6.73;;;2.40;;
4452;SDS011;2239;48.152;11.584;2024-01-15T05:27:59;7.13;;;2.30;;
4452;SDS011;2239;48.152;11.584;2024-01-15T05:30:26;4.85;;;2.15;;
4452;SDS011;2239;48.152;11.584;2024-01-15T05:32:51;6.97;;;2.90;;
4452;SDS011;2239;48.152;11.584;2024-01-15T05:35:17;5.13;;;1.70;;
4452;SDS011;2239;48.152;11.584;2024-01-15T05:37:43;6.30;;;2.67;;
4452;SDS011;2239;48.152;11.584;2024-01-15T05:40:11;7.32;;;2.20;;
4452;SDS011;2239;48.152;11.584;2024-01-15T05:42:38;3.25;;;1.48;;
4452;SDS011;2239;48.152;11.584;2024-01-15T05:45:04;4.20;;;2.15;;
4452;SDS011;2239;48.152;11.584;2024-01-15T05:47:30;4.45;;;1.80;;
4452;SDS011;2239;48.152;11.584;2024-01-15T05:49:56;5.43;;;2.40;;
4452;SDS011;2239;48.152;11.584;2024-01-15T05:52:23;6.63;;;2.28;;
4452;SDS011;2239;48.152;11.584;2024-01-15T05:54:51;6.03;;;2.40;;
4452;SDS011;2239;48.152;11.584;2024-01-15T05:57:17;8.63;;;2.67;;
4452;SDS011;2239;48.152;11.584;2024-01-15T05:59:44;7.10;;;2.50;;
4452;SDS011;2239;48.152;11.584;2024-01-15T06:02:09;8.30;;;2.53;;
4452;SDS011;2239;48.152;11.584;2024-01-15T06:04:36;4.78;;;1.98;;
4452;SDS011;2239;48.152;11.584;2024-01-15T06:07:01;7.90;;;2.63;;
4452;SDS011;2239;48.152;11.584;2024-01-15T06:09:27;4.77;;;2.57;;
4452;SDS011;2239;48.152;11.584;2024-01-15T06:11:53;5.25;;;2.17;;
4452;SDS011;2239;48.152;11.584;2024-01-15T06:14:25;6.38;;;2.15;;
4452;SDS011;2239;48.152;11.584;2024-01-15T06:16:51;8.90;;;1.90;;
4452;SDS011;2239;48.152;11.584;2024-01-15T06:19:17;9.80;;;2.13;;
4452;SDS011;2239;48.152;11.584;2024-01-15T06:21:43;8.00;;;2.60;;
4452;SDS011;2239;48.152;11.584;2024-01-15T06:24:08;7.43;;;2.40;;
4452;SDS011;2239;48.152;11.584;2024-01-15T06:26:35;4.13;;;2.40;;
4452;SDS011;2239;48.152;11.584;2024-01-15T06:29:01;5.87;;;2.23;;
4452;SDS011;2239;48.152;11.584;2024-01-15T06:31:27;6.70;;;2.20;;
4452;SDS011;2239;48.152;11.584;2024-01-15T06:33:53;5.87;;;1.90;;
4452;SDS011;2239;48.152;11.584;2024-01-15T06:36:19;4.40;;;2.13;;
4452;SDS011;2239;48.152;11.584;2024-01-15T06:38:44;6.20;;;2.80;;
4452;SDS011;2239;48.152;11.584;2024-01-15T06:41:10;6.73;;;2.13;;
4452;SDS011;2239;48.152;11.584;2024-01-15T06:43:35;8.60;;;2.60;;
4452;SDS011;2239;48.152;11.584;2024-01-15T06:46:01;9.80;;;2.17;;
4452;SDS011;2239;48.152;11.584;2024-01-15T06:48:27;6.17;;;2.40;;
4452;SDS011;2239;48.152;11.584;2024-01-15T06:50:52;3.20;;;2.00;;
4452;SDS011;2239;48.152;11.584;2024-01-15T06:53:18;4.00;;;1.97;;
4452;SDS011;2239;48.152;11.584;2024-01-15T06:55:44;4.70;;;2.00;;
4452;SDS011;2239;48.152;11.584;2024-01-15T06:58:09;2.77;;;1.33;;
4452;SDS011;2239;48.152;11.584;2024-01-15T07:00:35;3.43;;;1.43;;
4452;SDS011;2239;48.152;11.584;2024-01-15T07:03:00;7.07;;;1.77;;
4452;SDS011;2239;48.152;11.584;2024-01-15T07:05:26;4.30;;;1.70;;
4452;SDS011;2239;48.152;11.584;2024-01-15T07:07:51;4.67;;;2.30;;
4452;SDS011;2239;48.152;11.584;2024-01-15T07:10:17;5.77;;;2.00;;
4452;SDS011;2239;48.152;11.584;2024-01-15T07:12:42;5.43;;;1.97;;
4452;SDS011;2239;48.152;11.584;2024-01-15T07:15:09;6.40;;;2.22;;
4452;SDS011;2239;48.152;11.584;2024-01-15T07:17:35;7.53;;;2.70;;
4452;SDS011;2239;48.152;11.584;2024-01-15T07:20:01;8.98;;;2.35;;
4452;SDS011;2239;48.152;11.584;2024-01-15T07:22:26;3.97;;;2.47;;
4452;SDS011;2239;48.152;11.584;2024-01-15T07:24:52;3.87;;;2.10;;
4452;SDS011;2239;48.152;11.584;2024-01-15T07:27:18;7.10;;;2.90;;
4452;SDS011;2239;48.152;11.584;2024-01-15T07:29:43;5.10;;;2.07;;
4452;SDS011;2239;48.152;11.584;2024-01-15T07:32:09;6.37;;;2.17;;
4452;SDS011;2239;48.152;11.584;2024-01-15T07:34:35;8.17;;;2.90;;
4452;SDS011;2239;48.152;11.584;2024-01-15T07:37:02;7.13;;;2.47;;
4452;SDS011;2239;48.152;11.584;2024-01-15T07:39:27;9.13;;;2.70;;
4452;SDS011;2239;48.152;11.584;2024-01-15T07:41:53;5.63;;;2.70;;
4452;SDS011;2239;48.152;11.584;2024-01-15T07:44:19;4.20;;;2.37;;
4452;SDS011;2239;48.152;11.584;2024-01-15T07:46:45;8.87;;;2.47;;
4452;SDS011;2239;48.152;11.584;2024-01-15T07:49:12;5.72;;;2.28;;
4452;SDS011;2239;48.152;11.584;2024-01-15T07:51:37;4.70;;;2.50;;
4452;SDS011;2239;48.152;11.584;2024-01-15T07:54:05;10.07;;;3.25;;
4452;SDS011;2239;48.152;11.584;2024-01-15T07:56:31;6.03;;;2.70;;
4452;SDS011;2239;48.152;11.584;2024-01-15T07:58:56;4.17;;;2.23;;
4452;SDS011;2239;48.152;11.584;2024-01-15T08:01:22;9.23;;;3.00;;
4452;SDS011;2239;48.152;11.584;2024-01-15T08:03:48;4.50;;;2.30;;
4452;SDS011;2239;48.152;11.584;2024-01-15T08:06:13;6.50;;;2.70;;
4452;SDS011;2239;48.152;11.584;2024-01-15T08:08:39;7.73;;;2.70;;
4452;SDS011;2239;48.152;11.584;2024-01-15T08:11:04;5.13;;;2.67;;
4452;SDS011;2239;48.152;11.584;2024-01-15T08:13:30;6.80;;;2.30;;
4452;SDS011;2239;48.152;11.584;2024-01-15T08:15:55;6.50;;;2.63;;
4452;SDS011;2239;48.152;11.584;2024-01-15T08:18:21;5.10;;;2.20;;
4452;SDS011;2239;48.152;11.584;2024-01-15T08:20:47;6.83;;;1.57;;
4452;SDS011;2239;48.152;11.584;2024-01-15T08:23:13;7.10;;;2.67;;
4452;SDS011;2239;48.152;11.584;2024-01-15T08:25:38;10.37;;;2.47;;
4452;SDS011;2239;48.152;11.584;2024-01-15T08:28:04;7.87;;;2.60;;
4452;SDS011;2239;48.152;11.584;2024-01-15T08:30:30;8.27;;;2.40;;
4452;SDS011;2239;48.152;11.584;2024-01-15T08:32:56;6.47;;;2.60;;
4452;SDS011;2239;48.152;11.584;2024-01-15T08:35:22;14.77;;;3.00;;
4452;SDS011;2239;48.152;11.584;2024-01-15T08:37:48;11.93;;;2.60;;
4452;SDS011;2239;48.152;11.584;2024-01-15T08:40:15;7.78;;;2.03;;
4452;SDS011;2239;48.152;11.584;2024-01-15T08:42:41;6.93;;;2.35;;
4452;SDS011;2239;48.152;11.584;2024-01-15T08:45:06;6.43;;;1.87;;
4452;SDS011;2239;48.152;11.584;2024-01-15T08:47:32;7.90;;;2.00;;
4452;SDS011;2239;48.152;11.584;2024-01-15T08:49:59;5.88;;;2.53;;
4452;SDS011;2239;48.152;11.584;2024-01-15T08:52:25;4.43;;;1.67;;
4452;SDS011;2239;48.152;11.584;2024-01-15T08:54:50;13.50;;;2.93;;
4452;SDS011;2239;48.152;11.584;2024-01-15T08:57:16;2.70;;;1.50;;
4452;SDS011;2239;48.152;11.584;2024-01-15T08:59:42;4.07;;;2.10;;
4452;SDS011;2239;48.152;11.584;2024-01-15T09:02:07;6.20;;;2.07;;
4452;SDS011;2239;48.152;11.584;2024-01-15T09:04:33;3.97;;;2.03;;
4452;SDS011;2239;48.152;11.584;2024-01-15T09:06:59;3.80;;;1.70;;
4452;SDS011;2239;48.152;11.584;2024-01-15T09:09:24;4.27;;;2.07;;
4452;SDS011;2239;48.152;11.584;2024-01-15T09:11:50;6.20;;;2.27;;
4452;SDS011;2239;48.152;11.584;2024-01-15T09:14:16;12.77;;;2.75;;
4452;SDS011;2239;48.152;11.584;2024-01-15T09:16:42;9.45;;;2.40;;
4452;SDS011;2239;48.152;11.584;2024-01-15T09:19:08;9.20;;;2.33;;
4452;SDS011;2239;48.152;11.584;2024-01-15T09:21:33;8.70;;;2.80;;
4452;SDS011;2239;48.152;11.584;2024-01-15T09:23:59;9.97;;;2.70;;
4452;SDS011;2239;48.152;11.584;2024-01-15T09:26:24;7.03;;;2.50;;
4452;SDS011;2239;48.152;11.584;2024-01-15T09:28:50;7.93;;;2.90;;
4452;SDS011;2239;48.152;11.584;2024-01-15T09:31:16;7.07;;;2.75;;
4452;SDS011;2239;48.152;11.584;2024-01-15T09:33:42;6.20;;;2.58;;
4452;SDS011;2239;48.152;11.584;2024-01-15T09:36:09;9.35;;;3.35;;
4452;SDS011;2239;48.152;11.584;2024-01-15T09:38:34;6.73;;;2.87;;
4452;SDS011;2239;48.152;11.584;2024-01-15T09:41:00;5.00;;;2.10;;
4452;SDS011;2239;48.152;11.584;2024-01-15T09:43:25;6.30;;;2.63;;
4452;SDS011;2239;48.152;11.584;2024-01-15T09:45:51;7.33;;;3.40;;
4452;SDS011;2239;48.152;11.584;2024-01-15T09:48:18;6.30;;;2.60;;
4452;SDS011;2239;48.152;11.584;2024-01-15T09:50:44;7.10;;;2.53;;
4452;SDS011;2239;48.152;11.584;2024-01-15T09:53:10;5.40;;;2.00;;
4452;SDS011;2239;48.152;11.584;2024-01-15T09:55:36;5.15;;;2.70;;
4452;SDS011;2239;48.152;11.584;2024-01-15T09:58:05;6.47;;;1.80;;
4452;SDS011;2239;48.152;11.584;2024-01-15T10:00:31;8.40;;;2.80;;
4452;SDS011;2239;48.152;11.584;2024-01-15T10:02:58;7.93;;;2.47;;
4452;SDS011;2239;48.152;11.584;2024-01-15T10:05:25;10.93;;;2.05;;
4452;SDS011;2239;48.152;11.584;2024-01-15T10:07:52;6.57;;;2.05;;
4452;SDS011;2239;48.152;11.584;2024-01-15T10:10:21;3.22;;;1.83;;
4452;SDS011;2239;48.152;11.584;2024-01-15T10:12:49;4.80;;;2.03;;
4452;SDS011;2239;48.152;11.584;2024-01-15T10:15:15;8.80;;;2.77;;
4452;SDS011;2239;48.152;11.584;2024-01-15T10:17:42;3.67;;;1.60;;
4452;SDS011;2239;48.152;11.584;2024-01-15T10:20:11;3.70;;;1.80;;
4452;SDS011;2239;48.152;11.584;2024-01-15T10:22:41;6.97;;;2.65;;
4452;SDS011;2239;48.152;11.584;2024-01-15T10:25:14;3.15;;;1.80;;
4452;SDS011;2239;48.152;11.584;2024-01-15T10:27:42;5.90;;;1.73;;
4452;SDS011;2239;48.152;11.584;2024-01-15T10:30:09;8.45;;;2.00;;
4452;SDS011;2239;48.152;11.584;2024-01-15T10:32:35;7.80;;;1.70;;
4452;SDS011;2239;48.152;11.584;2024-01-15T10:35:01;4.80;;;2.10;;
4452;SDS011;2239;48.152;11.584;2024-01-15T10:37:32;3.22;;;1.30;;
4452;SDS011;2239;48.152;11.584;2024-01-15T10:40:00;5.13;;;2.05;;
4452;SDS011;2239;48.152;11.584;2024-01-15T10:42:28;3.80;;;1.88;;
4452;SDS011;2239;48.152;11.584;2024-01-15T10:44:54;8.07;;;2.20;;
4452;SDS011;2239;48.152;11.584;2024-01-15T10:47:19;3.97;;;1.73;;
4452;SDS011;2239;48.152;11.584;2024-01-15T10:49:46;3.70;;;1.75;;
4452;SDS011;2239;48.152;11.584;2024-01-15T10:52:11;1.30;;;0.83;;
4452;SDS011;2239;48.152;11.584;2024-01-15T10:54:37;3.67;;;1.87;;
4452;SDS011;2239;48.152;11.584;2024-01-15T10:57:03;5.22;;;1.90;;
4452;SDS011;2239;48.152;11.584;2024-01-15T10:59:30;4.75;;;2.00;;
4452;SDS011;2239;48.152;11.584;2024-01-15T11:01:57;4.07;;;1.67;;
4452;SDS011;2239;48.152;11.584;2024-01-15T11:04:24;5.57;;;1.88;;
4452;SDS011;2239;48.152;11.584;2024-01-15T11:06:53;3.58;;;1.80;;
4452;SDS011;2239;48.152;11.584;2024-01-15T11:09:20;4.85;;;1.80;;
4452;SDS011;2239;48.152;11.584;2024-01-15T11:11:46;3.23;;;1.77;;
4452;SDS011;2239;48.152;11.584;2024-01-15T11:15:00;4.32;;;2.00;;
4452;SDS011;2239;48.152;11.584;2024-01-15T11:17:03;4.10;;;1.55;;
4452;SDS011;2239;48.152;11.584;2024-01-15T11:22:08;5.25;;;2.20;;
4452;SDS011;2239;48.152;11.584;2024-01-15T11:24:39;5.05;;;1.52;;
4452;SDS011;2239;48.152;11.584;2024-01-15T11:27:06;5.70;;;2.28;;
4452;SDS011;2239;48.152;11.584;2024-01-15T11:29:34;2.35;;;1.40;;
4452;SDS011;2239;48.152;11.584;2024-01-15T11:32:01;6.38;;;2.08;;
4452;SDS011;2239;48.152;11.584;2024-01-15T11:37:17;5.15;;;1.88;;
4452;SDS011;2239;48.152;11.584;2024-01-15T11:39:43;3.47;;;1.30;;
4452;SDS011;2239;48.152;11.584;2024-01-15T11:42:10;7.43;;;2.15;;
4452;SDS011;2239;48.152;11.584;2024-01-15T11:44:36;4.00;;;1.98;;
4452;SDS011;2239;48.152;11.584;2024-01-15T11:47:03;6.85;;;2.42;;
4452;SDS011;2239;48.152;11.584;2024-01-15T11:52:37;7.82;;;1.60;;
4452;SDS011;2239;48.152;11.584;2024-01-15T11:55:19;3.22;;;1.67;;
4452;SDS011;2239;48.152;11.584;2024-01-15T11:57:53;5.15;;;2.05;;
4452;SDS011;2239;48.152;11.584;2024-01-15T12:00:22;3.55;;;1.85;;
4452;SDS011;2239;48.152;11.584;2024-01-15T12:02:48;2.90;;;1.75;;
4452;SDS011;2239;48.152;11.584;2024-01-15T12:05:16;1.88;;;1.45;;
4452;SDS011;2239;48.152;11.584;2024-01-15T12:07:44;7.85;;;1.67;;
4452;SDS011;2239;48.152;11.584;2024-01-15T12:10:16;3.92;;;2.00;;
4452;SDS011;2239;48.152;11.584;2024-01-15T12:15:12;4.20;;;2.03;;
4452;SDS011;2239;48.152;11.584;2024-01-15T12:17:39;3.60;;;1.70;;
4452;SDS011;2239;48.152;11.584;2024-01-15T12:20:04;4.10;;;1.60;;
4452;SDS011;2239;48.152;11.584;2024-01-15T12:22:31;6.10;;;1.60;;
4452;SDS011;2239;48.152;11.584;2024-01-15T12:24:57;3.63;;;1.57;;
4452;SDS011;2239;48.152;11.584;2024-01-15T12:27:22;3.10;;;1.70;;
4452;SDS011;2239;48.152;11.584;2024-01-15T12:29:48;3.90;;;1.88;;
4452;SDS011;2239;48.152;11.584;2024-01-15T12:32:14;5.07;;;1.50;;
4452;SDS011;2239;48.152;11.584;2024-01-15T12:34:39;2.57;;;1.47;;
4452;SDS011;2239;48.152;11.584;2024-01-15T12:37:06;5.40;;;1.93;;
4452;SDS011;2239;48.152;11.584;2024-01-15T12:39:36;6.22;;;1.50;;
4452;SDS011;2239;48.152;11.584;2024-01-15T12:42:01;2.97;;;1.30;;
4452;SDS011;2239;48.152;11.584;2024-01-15T12:44:28;5.40;;;1.60;;
4452;SDS011;2239;48.152;11.584;2024-01-15T12:46:54;3.43;;;1.20;;
4452;SDS011;2239;48.152;11.584;2024-01-15T12:49:20;2.53;;;1.20;;
4452;SDS011;2239;48.152;11.584;2024-01-15T12:51:52;1.85;;;1.30;;
4452;SDS011;2239;48.152;11.584;2024-01-15T12:54:24;3.75;;;1.40;;
4452;SDS011;2239;48.152;11.584;2024-01-15T12:56:50;3.50;;;1.70;;
4452;SDS011;2239;48.152;11.584;2024-01-15T12:59:16;4.10;;;1.85;;
4452;SDS011;2239;48.152;11.584;2024-01-15T13:01:43;2.05;;;1.30;;
4452;SDS011;2239;48.152;11.584;2024-01-15T13:04:09;3.28;;;1.70;;
4452;SDS011;2239;48.152;11.584;2024-01-15T13:06:35;7.20;;;1.70;;
4452;SDS011;2239;48.152;11.584;2024-01-15T13:09:01;3.25;;;1.33;;
4452;SDS011;2239;48.152;11.584;2024-01-15T13:11:35;2.47;;;1.58;;
4452;SDS011;2239;48.152;11.584;2024-01-15T13:14:00;3.30;;;1.27;;
4452;SDS011;2239;48.152;11.584;2024-01-15T13:16:26;7.17;;;1.50;;
4452;SDS011;2239;48.152;11.584;2024-01-15T13:18:54;3.38;;;1.75;;
4452;SDS011;2239;48.152;11.584;2024-01-15T13:21:20;5.00;;;2.47;;
4452;SDS011;2239;48.152;11.584;2024-01-15T13:23:45;4.43;;;1.67;;
4452;SDS011;2239;48.152;11.584;2024-01-15T13:26:11;9.10;;;2.40;;
4452;SDS011;2239;48.152;11.584;2024-01-15T13:28:37;2.92;;;1.63;;
4452;SDS011;2239;48.152;11.584;2024-01-15T13:31:02;3.83;;;1.87;;
4452;SDS011;2239;48.152;11.584;2024-01-15T13:33:29;4.28;;;1.90;;
4452;SDS011;2239;48.152;11.584;2024-01-15T13:35:55;5.28;;;2.05;;
4452;SDS011;2239;48.152;11.584;2024-01-15T13:38:21;2.50;;;1.50;;
4452;SDS011;2239;48.152;11.584;2024-01-15T13:40:46;4.17;;;1.97;;
4452;SDS011;2239;48.152;11.584;2024-01-15T13:43:12;4.47;;;1.40;;
4452;SDS011;2239;48.152;11.584;2024-01-15T13:45:39;4.72;;;1.50;;
4452;SDS011;2239;48.152;11.584;2024-01-15T13:48:08;3.53;;;1.25;;
4452;SDS011;2239;48.152;11.584;2024-01-15T13:50:34;3.50;;;1.97;;
4452;SDS011;2239;48.152;11.584;2024-01-15T13:53:00;5.13;;;1.75;;
4452;SDS011;2239;48.152;11.584;2024-01-15T13:55:28;4.70;;;1.83;;
4452;SDS011;2239;48.152;11.584;2024-01-15T13:57:54;7.07;;;2.27;;
4452;SDS011;2239;48.152;11.584;2024-01-15T14:00:20;6.80;;;2.03;;
4452;SDS011;2239;48.152;11.584;2024-01-15T14:02:46;2.90;;;1.70;;
4452;SDS011;2239;48.152;11.584;2024-01-15T14:05:12;4.55;;;2.13;;
4452;SDS011;2239;48.152;11.584;2024-01-15T14:07:38;7.33;;;2.20;;
4452;SDS011;2239;48.152;11.584;2024-01-15T14:10:04;4.93;;;1.97;;
4452;SDS011;2239;48.152;11.584;2024-01-15T14:12:31;5.00;;;1.80;;
4452;SDS011;2239;48.152;11.584;2024-01-15T14:14:56;4.27;;;1.77;;
4452;SDS011;2239;48.152;11.584;2024-01-15T14:17:22;4.10;;;1.80;;
4452;SDS011;2239;48.152;11.584;2024-01-15T14:19:48;4.47;;;1.83;;
4452;SDS011;2239;48.152;11.584;2024-01-15T14:22:13;4.03;;;1.87;;
4452;SDS011;2239;48.152;11.584;2024-01-15T14:24:39;4.13;;;1.83;;
4452;SDS011;2239;48.152;11.584;2024-01-15T14:27:04;6.30;;;1.50;;
4452;SDS011;2239;48.152;11.584;2024-01-15T14:29:32;5.03;;;2.03;;
4452;SDS011;2239;48.152;11.584;2024-01-15T14:31:57;5.30;;;1.80;;
4452;SDS011;2239;48.152;11.584;2024-01-15T14:34:24;4.88;;;1.90;;
4452;SDS011;2239;48.152;11.584;2024-01-15T14:36:51;2.78;;;1.60;;
4452;SDS011;2239;48.152;11.584;2024-01-15T14:39:18;4.20;;;1.73;;
4452;SDS011;2239;48.152;11.584;2024-01-15T14:41:44;4.80;;;1.90;;
4452;SDS011;2239;48.152;11.584;2024-01-15T14:44:11;4.22;;;1.48;;
4452;SDS011;2239;48.152;11.584;2024-01-15T14:46:37;2.77;;;1.27;;
4452;SDS011;2239;48.152;11.584;2024-01-15T14:49:03;4.20;;;1.67;;
4452;SDS011;2239;48.152;11.584;2024-01-15T14:51:31;3.10;;;1.70;;
4452;SDS011;2239;48.152;11.584;2024-01-15T14:53:57;2.67;;;1.60;;
4452;SDS011;2239;48.152;11.584;2024-01-15T14:56:23;2.77;;;1.60;;
4452;SDS011;2239;48.152;11.584;2024-01-15T14:58:49;3.63;;;1.37;;
4452;SDS011;2239;48.152;11.584;2024-01-15T15:01:14;4.67;;;1.63;;
4452;SDS011;2239;48.152;11.584;2024-01-15T15:03:40;2.53;;;1.53;;
4452;SDS011;2239;48.152;11.584;2024-01-15T15:06:06;2.20;;;1.57;;
4452;SDS011;2239;48.152;11.584;2024-01-15T15:08:32;2.95;;;1.50;;
4452;SDS011;2239;48.152;11.584;2024-01-15T15:10:58;5.88;;;1.70;;
4452;SDS011;2239;48.152;11.584;2024-01-15T15:13:25;2.67;;;1.50;;
4452;SDS011;2239;48.152;11.584;2024-01-15T15:15:51;3.83;;;1.75;;
4452;SDS011;2239;48.152;11.584;2024-01-15T15:18:17;7.30;;;1.67;;
4452;SDS011;2239;48.152;11.584;2024-01-15T15:20:42;4.30;;;1.83;;
4452;SDS011;2239;48.152;11.584;2024-01-15T15:23:08;2.27;;;1.70;;
4452;SDS011;2239;48.152;11.584;2024-01-15T15:25:35;8.15;;;1.90;;
4452;SDS011;2239;48.152;11.584;2024-01-15T15:28:01;5.47;;;1.90;;
4452;SDS011;2239;48.152;11.584;2024-01-15T15:30:29;3.88;;;1.77;;
4452;SDS011;2239;48.152;11.584;2024-01-15T15:32:56;2.70;;;1.65;;
4452;SDS011;2239;48.152;11.584;2024-01-15T15:35:21;6.80;;;1.70;;
4452;SDS011;2239;48.152;11.584;2024-01-15T15:37:47;4.47;;;1.73;;
4452;SDS011;2239;48.152;11.584;2024-01-15T15:40:15;2.93;;;1.50;;
4452;SDS011;2239;48.152;11.584;2024-01-15T15:42:44;3.13;;;1.35;;
4452;SDS011;2239;48.152;11.584;2024-01-15T15:45:16;3.53;;;1.80;;
4452;SDS011;2239;48.152;11.584;2024-01-15T15:47:41;6.57;;;2.20;;
4452;SDS011;2239;48.152;11.584;2024-01-15T15:50:10;4.30;;;1.70;;
4452;SDS011;2239;48.152;11.584;2024-01-15T15:52:35;5.23;;;1.67;;
4452;SDS011;2239;48.152;11.584;2024-01-15T15:55:01;3.60;;;1.70;;
4452;SDS011;2239;48.152;11.584;2024-01-15T15:57:27;5.15;;;2.40;;
4452;SDS011;2239;48.152;11.584;2024-01-15T15:59:53;6.35;;;2.47;;
4452;SDS011;2239;48.152;11.584;2024-01-15T16:02:20;2.47;;;2.13;;
4452;SDS011;2239;48.152;11.584;2024-01-15T16:04:46;4.95;;;2.05;;
4452;SDS011;2239;48.152;11.584;2024-01-15T16:07:11;7.60;;;2.43;;
4452;SDS011;2239;48.152;11.584;2024-01-15T16:09:38;8.25;;;2.30;;
4452;SDS011;2239;48.152;11.584;2024-01-15T16:12:05;5.93;;;1.95;;
4452;SDS011;2239;48.152;11.584;2024-01-15T16:14:31;5.15;;;2.15;;
4452;SDS011;2239;48.152;11.584;2024-01-15T16:16:56;4.67;;;1.90;;
4452;SDS011;2239;48.152;11.584;2024-01-15T16:19:25;3.08;;;1.63;;
4452;SDS011;2239;48.152;11.584;2024-01-15T16:21:51;6.10;;;2.10;;
4452;SDS011;2239;48.152;11.584;2024-01-15T16:24:17;5.82;;;2.00;;
4452;SDS011;2239;48.152;11.584;2024-01-15T16:26:44;7.63;;;2.42;;
4452;SDS011;2239;48.152;11.584;2024-01-15T16:29:10;7.90;;;2.97;;
4452;SDS011;2239;48.152;11.584;2024-01-15T16:31:35;4.90;;;2.70;;
4452;SDS011;2239;48.152;11.584;2024-01-15T16:34:02;10.65;;;2.67;;
4452;SDS011;2239;48.152;11.584;2024-01-15T16:36:28;3.97;;;2.17;;
4452;SDS011;2239;48.152;11.584;2024-01-15T16:38:54;5.37;;;2.17;;
4452;SDS011;2239;48.152;11.584;2024-01-15T16:41:19;5.50;;;2.50;;
4452;SDS011;2239;48.152;11.584;2024-01-15T16:43:45;10.38;;;2.35;;
4452;SDS011;2239;48.152;11.584;2024-01-15T16:46:11;6.90;;;2.93;;
4452;SDS011;2239;48.152;11.584;2024-01-15T16:48:37;6.73;;;2.63;;
4452;SDS011;2239;48.152;11.584;2024-01-15T16:51:03;8.05;;;2.55;;
4452;SDS011;2239;48.152;11.584;2024-01-15T16:53:29;6.30;;;2.40;;
4452;SDS011;2239;48.152;11.584;2024-01-15T16:55:54;6.37;;;2.90;;
4452;SDS011;2239;48.152;11.584;2024-01-15T16:58:20;3.83;;;1.97;;
4452;SDS011;2239;48.152;11.584;2024-01-15T17:00:46;7.23;;;2.70;;
4452;SDS011;2239;48.152;11.584;2024-01-15T17:03:12;7.40;;;2.42;;
4452;SDS011;2239;48.152;11.584;2024-01-15T17:05:38;3.50;;;2.23;;
4452;SDS011;2239;48.152;11.584;2024-01-15T17:08:03;5.50;;;2.43;;